Time;durP1;ratioP1;P1;durP2;ratioP2;P2;SDS_P1;SDS_P2;PMS_P1;PMS_P2;Temp;Humidity;BMP_temperature;BMP_pressure;BME280_temperature;BME280_humidity;BME280_pressure;Samples;Min_cycle;Max_cycle;Signal;HPM_P1;HPM_P2
2023/07/20 00:01:17;;;;;;;;;;;;;;;16.81;48.81;100262.65;105721;1286;67729;-88
2023/07/20 00:04:03;;;;;;;;;;;;;;;16.85;48.90;100262.46;105274;1288;73125;-88
2023/07/20 00:06:50;;;;;;;;;;;;;;;16.86;49.02;100256.85;105292;1286;61400;-88
2023/07/20 00:09:36;;;;;;;;;;;;;;;16.86;49.08;100259.80;105361;1286;59319;-87
2023/07/20 00:12:23;;;;;;;;;;;;;;;16.82;49.21;100257.36;105660;1290;73536;-88
2023/07/20 00:15:09;;;;;;;;;;;;;;;16.84;49.44;100256.75;105733;1285;67045;-87
2023/07/20 00:17:55;;;;;;;;;;;;;;;16.82;49.39;100252.84;105505;1289;71252;-87
2023/07/20 00:20:41;;;;;;;;;;;;;;;16.84;49.38;100249.80;105411;1287;59250;-88
2023/07/20 00:23:27;;;;;;;;;;;;;;;16.88;49.41;100254.32;105576;1286;61485;-88
2023/07/20 00:26:14;;;;;;;;;;;;;;;16.92;49.53;100257.43;105492;1285;75172;-88
2023/07/20 00:29:00;;;;;;;;;;;;;;;16.95;49.54;100256.61;105082;1288;67439;-88
2023/07/20 00:31:46;;;;;;;;;;;;;;;16.96;49.63;100254.77;105508;1286;71617;-87
2023/07/20 00:34:33;;;;;;;;;;;;;;;16.94;49.70;100253.32;105696;1286;61619;-88
2023/07/20 00:37:19;;;;;;;;;;;;;;;16.94;49.78;100254.89;105741;1286;62865;-88
2023/07/20 00:40:07;;;;;;;;;;;;;;;16.98;49.80;100255.93;105430;1288;77380;-88
2023/07/20 00:42:53;;;;;;;;;;;;;;;17.02;49.85;100259.76;105354;1286;68391;-88
2023/07/20 00:45:39;;;;;;;;;;;;;;;17.04;49.96;100259.98;105267;1288;70694;-88
2023/07/20 00:48:26;;;;;;;;;;;;;;;17.01;50.01;100264.64;105295;1286;61157;-88
2023/07/20 00:51:12;;;;;;;;;;;;;;;17.03;50.14;100266.85;105437;1287;59759;-88
2023/07/20 00:53:59;;;;;;;;;;;;;;;17.06;50.23;100257.61;105674;1287;74138;-88
2023/07/20 00:56:45;;;;;;;;;;;;;;;17.07;50.31;100263.33;105508;1288;67493;-87
2023/07/20 00:59:32;;;;;;;;;;;;;;;17.06;50.38;100261.98;105463;1286;72944;-87
2023/07/20 01:02:18;;;;;;;;;;;;;;;17.05;50.36;100262.73;105445;1286;61323;-87
2023/07/20 01:05:06;;;;;;;;;;;;;;;17.07;50.45;100261.42;105258;1289;59423;-87
2023/07/20 01:07:58;;;;;;;;;;;;;;;17.07;50.49;100261.75;105583;1288;77646;-87
2023/07/20 01:10:51;;;;;;;;;;;;;;;16.99;50.61;100264.61;105578;1288;68852;-87
2023/07/20 01:13:38;;;;;;;;;;;;;;;16.98;50.75;100258.72;105218;1286;71428;-87
2023/07/20 01:16:24;;;;;;;;;;;;;;;16.98;50.84;100254.02;105886;1286;61148;-88
2023/07/20 01:19:14;;;;;;;;;;;;;;;16.86;50.94;100253.34;105676;1288;61590;-88
2023/07/20 01:22:36;;;;;;;;;;;;;;;16.86;51.12;100257.35;105480;1286;72489;-87
2023/07/20 01:25:55;;;;;;;;;;;;;;;16.92;51.23;100260.23;105527;1287;67595;-87
2023/07/20 01:28:41;;;;;;;;;;;;;;;16.95;51.30;100267.55;105525;1289;71163;-87
2023/07/20 01:31:30;;;;;;;;;;;;;;;16.95;51.32;100263.90;105735;1286;61055;-87
2023/07/20 01:34:19;;;;;;;;;;;;;;;17.00;51.42;100264.17;105711;1288;61058;-87
2023/07/20 01:37:06;;;;;;;;;;;;;;;17.06;51.39;100258.30;106089;1286;73371;-86
2023/07/20 01:39:55;;;;;;;;;;;;;;;17.07;51.41;100256.52;105749;1286;67191;-87
2023/07/20 01:42:46;;;;;;;;;;;;;;;17.10;51.53;100252.89;105634;1287;71171;-87
2023/07/20 01:45:34;;;;;;;;;;;;;;;17.15;51.48;100259.80;105591;1286;60350;-87
2023/07/20 01:48:20;;;;;;;;;;;;;;;17.18;51.51;100256.65;105721;1288;59385;-87
2023/07/20 01:51:06;;;;;;;;;;;;;;;17.17;51.58;100249.02;105694;1285;79915;-87
2023/07/20 01:53:52;;;;;;;;;;;;;;;17.19;51.62;100248.60;105604;1286;68379;-87
2023/07/20 01:56:38;;;;;;;;;;;;;;;17.21;51.65;100253.55;105643;1288;71123;-87
2023/07/20 01:59:24;;;;;;;;;;;;;;;17.25;51.66;100249.35;105616;1285;61034;-87
2023/07/20 02:02:10;;;;;;;;;;;;;;;17.28;51.68;100252.34;105711;1289;59682;-87
2023/07/20 02:04:56;;;;;;;;;;;;;;;17.31;51.60;100257.95;105695;1286;74589;-87
2023/07/20 02:07:43;;;;;;;;;;;;;;;17.33;51.59;100261.70;105651;1286;67314;-87
2023/07/20 02:10:30;;;;;;;;;;;;;;;17.32;51.88;100258.75;105759;1285;72469;-87
2023/07/20 02:13:16;;;;;;;;;;;;;;;17.30;51.92;100254.33;105664;1290;60048;-87
2023/07/20 02:16:12;;;;;;;;;;;;;;;17.30;52.00;100252.58;105618;1285;59449;-87
2023/07/20 02:18:58;;;;;;;;;;;;;;;17.18;52.16;100250.95;105584;1286;73184;-87
2023/07/20 02:21:45;;;;;;;;;;;;;;;17.03;52.34;100253.40;105676;1288;67264;-87
2023/07/20 02:24:33;;;;;;;;;;;;;;;17.06;52.43;100258.15;105657;1286;72693;-87
2023/07/20 02:27:19;;;;;;;;;;;;;;;17.12;52.39;100261.87;105683;1290;59737;-87
2023/07/20 02:30:06;;;;;;;;;;;;;;;17.11;52.60;100266.06;105658;1286;59186;-87
2023/07/20 02:32:52;;;;;;;;;;;;;;;17.13;52.68;100264.96;105616;1285;74110;-87
2023/07/20 02:35:40;;;;;;;;;;;;;;;17.16;52.65;100258.16;105674;1286;69066;-87
2023/07/20 02:38:26;;;;;;;;;;;;;;;17.18;52.89;100260.64;105620;1285;72126;-87
2023/07/20 02:41:13;;;;;;;;;;;;;;;17.20;52.85;100266.48;105640;1287;61055;-87
2023/07/20 02:44:19;;;;;;;;;;;;;;;17.25;52.85;100266.44;105561;1286;61580;-87
2023/07/20 02:47:21;;;;;;;;;;;;;;;17.29;52.86;100267.44;105684;1287;73258;-88
2023/07/20 02:50:27;;;;;;;;;;;;;;;17.32;52.97;100268.34;105595;1288;69538;-87
2023/07/20 02:53:21;;;;;;;;;;;;;;;17.34;53.06;100277.80;105652;1289;71228;-87
2023/07/20 02:56:11;;;;;;;;;;;;;;;17.35;53.00;100276.75;105636;1291;60522;-87
2023/07/20 02:58:58;;;;;;;;;;;;;;;17.35;53.16;100272.23;105600;1285;61190;-87
2023/07/20 03:02:11;;;;;;;;;;;;;;;17.35;53.25;100279.00;105689;1285;73653;-87
2023/07/20 03:04:58;;;;;;;;;;;;;;;17.36;53.37;100281.58;105653;1288;68382;-87
2023/07/20 03:07:45;;;;;;;;;;;;;;;17.37;53.45;100278.88;105570;1285;72691;-87
2023/07/20 03:10:32;;;;;;;;;;;;;;;17.40;53.43;100278.75;105579;1289;61035;-87
2023/07/20 03:13:26;;;;;;;;;;;;;;;17.40;53.55;100270.39;105581;1286;59870;-86
2023/07/20 03:16:15;;;;;;;;;;;;;;;17.40;53.48;100272.83;105627;1285;72777;-86
2023/07/20 03:19:01;;;;;;;;;;;;;;;17.38;53.64;100268.23;105626;1285;67388;-86
2023/07/20 03:21:48;;;;;;;;;;;;;;;17.38;53.61;100271.69;105595;1287;71257;-86
2023/07/20 03:24:34;;;;;;;;;;;;;;;17.41;53.76;100274.36;105596;1288;59489;-86
2023/07/20 03:27:21;;;;;;;;;;;;;;;17.44;53.78;100279.08;105570;1290;62793;-86
2023/07/20 03:30:09;;;;;;;;;;;;;;;17.46;53.77;100276.88;105524;1286;73219;-87
2023/07/20 03:32:56;;;;;;;;;;;;;;;17.47;53.77;100274.02;105851;1286;66587;-86
2023/07/20 03:35:42;;;;;;;;;;;;;;;17.47;53.72;100276.83;105628;1288;73032;-86
2023/07/20 03:38:29;;;;;;;;;;;;;;;17.47;53.89;100281.02;105705;1285;61161;-87
2023/07/20 03:41:16;;;;;;;;;;;;;;;17.44;53.91;100283.95;105672;1290;59541;-86
2023/07/20 03:44:03;;;;;;;;;;;;;;;17.44;53.95;100278.73;105795;1285;74383;-86
2023/07/20 03:46:48;;;;;;;;;;;;;;;17.43;54.10;100277.20;105631;1287;68117;-86
2023/07/20 03:49:35;;;;;;;;;;;;;;;17.46;54.04;100279.70;105621;1286;71341;-87
2023/07/20 03:52:21;;;;;;;;;;;;;;;17.44;54.03;100280.64;105687;1286;61281;-86
2023/07/20 03:55:08;;;;;;;;;;;;;;;17.46;54.23;100281.95;105688;1286;61164;-86
2023/07/20 03:57:54;;;;;;;;;;;;;;;17.46;54.28;100280.70;105506;1287;74840;-87
2023/07/20 04:00:48;;;;;;;;;;;;;;;17.48;54.29;100280.64;106047;1286;67368;-87
2023/07/20 04:03:55;;;;;;;;;;;;;;;17.46;54.29;100283.31;105606;1289;71093;-87
2023/07/20 04:06:44;;;;;;;;;;;;;;;17.46;54.44;100291.00;105570;1286;62118;-87
2023/07/20 04:09:34;;;;;;;;;;;;;;;17.49;54.43;100291.91;105686;1286;61216;-87
2023/07/20 04:12:20;;;;;;;;;;;;;;;17.51;54.52;100288.65;105532;1286;74462;-86
2023/07/20 04:15:07;;;;;;;;;;;;;;;17.55;54.48;100291.25;105527;1288;66344;-87
2023/07/20 04:17:53;;;;;;;;;;;;;;;17.56;54.53;100284.40;105568;1288;73036;-87
2023/07/20 04:20:47;;;;;;;;;;;;;;;17.58;54.56;100290.58;105541;1289;61234;-87
2023/07/20 04:23:36;;;;;;;;;;;;;;;17.57;54.63;100290.98;105623;1286;61386;-87
2023/07/20 04:26:21;;;;;;;;;;;;;;;17.57;54.82;100289.41;106070;1288;73660;-87
2023/07/20 04:29:09;;;;;;;;;;;;;;;17.60;54.73;100285.60;105665;1286;67356;-87
2023/07/20 04:32:34;;;;;;;;;;;;;;;17.64;54.57;100283.81;105605;1288;71838;-87
2023/07/20 04:35:41;;;;;;;;;;;;;;;17.70;54.80;100283.49;105637;1285;61159;-87
2023/07/20 04:38:29;;;;;;;;;;;;;;;17.69;54.84;100281.47;105535;1288;61049;-87
2023/07/20 04:41:21;;;;;;;;;;;;;;;17.69;54.86;100282.50;86844;1291;5005153;-87
2023/07/20 04:44:07;;;;;;;;;;;;;;;17.71;54.86;100284.18;105654;1289;68567;-87
2023/07/20 04:46:54;;;;;;;;;;;;;;;17.73;54.98;100283.70;105547;1285;73044;-87
2023/07/20 04:49:41;;;;;;;;;;;;;;;17.77;55.05;100283.70;105738;1287;61233;-87
2023/07/20 04:52:29;;;;;;;;;;;;;;;17.84;55.15;100282.98;105639;1291;60772;-87
2023/07/20 04:55:36;;;;;;;;;;;;;;;17.90;55.03;100285.48;105524;1285;95338;-89
2023/07/20 04:59:01;;;;;;;;;;;;;;;17.97;55.04;100285.29;105606;1289;67235;-89
2023/07/20 05:02:27;;;;;;;;;;;;;;;18.04;55.07;100289.27;105546;1286;74072;-89
2023/07/20 05:05:52;;;;;;;;;;;;;;;18.15;55.07;100288.86;105607;1289;61253;-89
2023/07/20 05:09:18;;;;;;;;;;;;;;;18.29;55.01;100290.02;105578;1286;61193;-89
2023/07/20 05:12:45;;;;;;;;;;;;;;;18.46;54.93;100293.13;105625;1286;74559;-89
2023/07/20 05:16:10;;;;;;;;;;;;;;;18.58;54.91;100294.95;105611;1289;66374;-89
2023/07/20 05:19:36;;;;;;;;;;;;;;;18.69;54.80;100292.96;105468;1288;72243;-89
2023/07/20 05:23:02;;;;;;;;;;;;;;;18.93;54.97;100290.02;105605;1285;60151;-89
2023/07/20 05:26:09;;;;;;;;;;;;;;;19.23;54.77;100294.98;105529;1286;61795;-86
2023/07/20 05:29:00;;;;;;;;;;;;;;;19.43;54.55;100296.04;105734;1286;76087;-87
2023/07/20 05:32:09;;;;;;;;;;;;;;;19.58;54.56;100295.39;105631;1289;68195;-88
2023/07/20 05:34:57;;;;;;;;;;;;;;;19.75;54.68;100296.85;105732;1287;72528;-88
2023/07/20 05:37:46;;;;;;;;;;;;;;;20.25;54.56;100297.63;105589;1289;61232;-87
2023/07/20 05:40:32;;;;;;;;;;;;;;;20.80;54.36;100300.20;105516;1286;58835;-87
2023/07/20 05:43:46;;;;;;;;;;;;;;;21.44;54.10;100302.70;105344;1287;75109;-87
2023/07/20 05:46:34;;;;;;;;;;;;;;;22.21;53.73;100307.77;105241;1286;67479;-87
2023/07/20 05:49:20;;;;;;;;;;;;;;;22.91;53.51;100310.17;105013;1287;73240;-87
2023/07/20 05:52:06;;;;;;;;;;;;;;;23.55;53.12;100313.16;105572;1286;61273;-86
2023/07/20 05:54:52;;;;;;;;;;;;;;;24.08;52.67;100309.52;105521;1289;61190;-86
2023/07/20 05:57:41;;;;;;;;;;;;;;;24.52;52.51;100313.80;105696;1287;77332;-86
2023/07/20 06:00:27;;;;;;;;;;;;;;;25.05;51.98;100312.58;105635;1285;68500;-86
2023/07/20 06:03:13;;;;;;;;;;;;;;;25.49;51.63;100318.48;105642;1286;72177;-86
2023/07/20 06:06:04;;;;;;;;;;;;;;;25.84;51.10;100313.08;105689;1286;59277;-86
2023/07/20 06:08:50;;;;;;;;;;;;;;;25.96;50.80;100315.21;105604;1288;61177;-86
2023/07/20 06:11:36;;;;;;;;;;;;;;;25.87;50.72;100316.16;105582;1286;74060;-86
2023/07/20 06:14:22;;;;;;;;;;;;;;;26.05;50.62;100315.52;105635;1286;67400;-86
2023/07/20 06:17:08;;;;;;;;;;;;;;;26.43;50.35;100307.77;105531;1286;74015;-86
2023/07/20 06:19:54;;;;;;;;;;;;;;;26.84;49.93;100306.98;105660;1288;61091;-86
2023/07/20 06:22:41;;;;;;;;;;;;;;;27.15;49.46;100312.70;105690;1286;59327;-86
2023/07/20 06:25:27;;;;;;;;;;;;;;;27.41;49.08;100313.56;105638;1286;73165;-86
2023/07/20 06:28:14;;;;;;;;;;;;;;;27.51;48.87;100321.30;105701;1287;67194;-87
2023/07/20 06:31:03;;;;;;;;;;;;;;;28.00;48.69;100319.70;105563;1286;71337;-86
2023/07/20 06:33:49;;;;;;;;;;;;;;;28.56;48.33;100322.31;105597;1285;61214;-86
2023/07/20 06:36:36;;;;;;;;;;;;;;;29.08;48.07;100318.89;105543;1286;59292;-87
2023/07/20 06:39:22;;;;;;;;;;;;;;;29.64;47.71;100322.86;105667;1285;73375;-86
2023/07/20 06:42:08;;;;;;;;;;;;;;;29.90;46.92;100321.66;105631;1290;67183;-87
2023/07/20 06:44:54;;;;;;;;;;;;;;;30.24;47.06;100323.62;105565;1288;72325;-87
2023/07/20 06:47:57;;;;;;;;;;;;;;;30.53;46.66;100327.52;105613;1286;61430;-86
2023/07/20 06:50:44;;;;;;;;;;;;;;;30.55;46.57;100324.69;105656;1290;61208;-87
2023/07/20 06:53:35;;;;;;;;;;;;;;;30.67;46.10;100324.90;105616;1287;75122;-87
2023/07/20 06:56:21;;;;;;;;;;;;;;;30.84;46.27;100326.63;105607;1291;67486;-87
2023/07/20 06:59:26;;;;;;;;;;;;;;;31.34;45.53;100325.83;105610;1285;72415;-88
2023/07/20 07:02:14;;;;;;;;;;;;;;;31.51;44.63;100327.61;106480;1285;59027;-88
2023/07/20 07:05:20;;;;;;;;;;;;;;;31.28;44.46;100325.69;105701;1288;280860;-88
2023/07/20 07:08:18;;;;;;;;;;;;;;;30.75;44.06;100331.89;105661;1288;73321;-88
2023/07/20 07:11:12;;;;;;;;;;;;;;;29.81;43.96;100330.59;105603;1285;70988;-88
2023/07/20 07:14:00;;;;;;;;;;;;;;;29.44;44.18;100332.73;106459;1288;73033;-88
2023/07/20 07:16:54;;;;;;;;;;;;;;;29.76;43.94;100336.25;106426;1287;58994;-88
2023/07/20 07:19:42;;;;;;;;;;;;;;;29.96;43.39;100332.41;105618;1287;59388;-88
2023/07/20 07:22:29;;;;;;;;;;;;;;;29.83;43.11;100332.44;105517;1289;75596;-86
2023/07/20 07:25:15;;;;;;;;;;;;;;;29.38;42.89;100330.16;105655;1290;67229;-85
2023/07/20 07:33:31;;;;;;;;;;;;;;;27.50;42.73;100331.59;105851;1284;61216;-90
2023/07/20 07:36:56;;;;;;;;;;;;;;;26.69;42.55;100329.69;105774;1286;73219;-88
2023/07/20 07:40:19;;;;;;;;;;;;;;;25.95;42.57;100330.98;105781;1285;67227;-88
2023/07/20 07:43:44;;;;;;;;;;;;;;;25.37;42.51;100332.83;105689;1285;71326;-87
2023/07/20 07:47:11;;;;;;;;;;;;;;;24.94;42.47;100334.58;105707;1285;61081;-87
2023/07/20 07:50:37;;;;;;;;;;;;;;;24.77;42.60;100339.67;105785;1285;61158;-88
2023/07/20 07:54:03;;;;;;;;;;;;;;;26.15;42.56;100341.68;105757;1288;73236;-88
2023/07/20 07:57:34;;;;;;;;;;;;;;;29.38;41.68;100341.55;105593;1286;67462;-88
2023/07/20 08:01:00;;;;;;;;;;;;;;;32.23;40.36;100337.90;105680;1288;71803;-88
2023/07/20 08:04:27;;;;;;;;;;;;;;;34.24;39.58;100336.73;105708;1286;61301;-89
2023/07/20 08:07:53;;;;;;;;;;;;;;;33.01;39.68;100334.77;105706;1286;59815;-88
2023/07/20 08:11:19;;;;;;;;;;;;;;;30.61;39.82;100339.88;105687;1287;74290;-88
2023/07/20 08:14:44;;;;;;;;;;;;;;;29.70;40.40;100340.08;105800;1286;68117;-88
2023/07/20 08:18:11;;;;;;;;;;;;;;;29.72;40.00;100336.59;105735;1286;72053;-88
2023/07/20 08:21:39;;;;;;;;;;;;;;;29.01;39.85;100336.98;105735;1286;61059;-88
2023/07/20 08:25:03;;;;;;;;;;;;;;;28.25;39.82;100339.87;105766;1286;59388;-88
2023/07/20 08:28:29;;;;;;;;;;;;;;;27.59;39.72;100342.16;105249;1293;73440;-89
2023/07/20 08:31:55;;;;;;;;;;;;;;;26.94;39.77;100341.66;105146;1293;68221;-89
2023/07/20 08:35:23;;;;;;;;;;;;;;;26.47;39.85;100341.55;105175;1294;72169;-88
2023/07/20 08:38:47;;;;;;;;;;;;;;;26.33;39.92;100341.57;105149;1293;61171;-88
2023/07/20 08:42:13;;;;;;;;;;;;;;;26.92;39.71;100341.35;105172;1292;61784;-88
2023/07/20 08:45:39;;;;;;;;;;;;;;;27.05;39.34;100346.55;105166;1292;73652;-89
2023/07/20 08:49:05;;;;;;;;;;;;;;;26.78;39.57;100345.19;105153;1292;67580;-88
2023/07/20 08:52:31;;;;;;;;;;;;;;;26.79;39.47;100344.08;105192;1293;72427;-88
2023/07/20 08:55:57;;;;;;;;;;;;;;;26.70;39.58;100348.40;105133;1292;59497;-88
2023/07/20 08:59:23;;;;;;;;;;;;;;;26.56;39.44;100356.36;105126;1293;59858;-88
2023/07/20 09:02:49;;;;;;;;;;;;;;;26.10;39.56;100358.01;105194;1294;73390;-88
2023/07/20 09:06:15;;;;;;;;;;;;;;;25.80;39.70;100354.59;105655;1288;67580;-88
2023/07/20 09:09:44;;;;;;;;;;;;;;;25.70;39.63;100361.38;105671;1286;72433;-88
2023/07/20 09:13:10;;;;;;;;;;;;;;;25.37;39.82;100364.98;105752;1287;59370;-88
2023/07/20 09:16:36;;;;;;;;;;;;;;;25.02;40.10;100371.34;105704;1286;60641;-88
2023/07/20 09:20:10;;;;;;;;;;;;;;;24.84;40.22;100368.39;105728;1288;73776;-88
2023/07/20 09:23:34;;;;;;;;;;;;;;;24.85;40.50;100363.21;106236;1288;68197;-88
2023/07/20 09:27:05;;;;;;;;;;;;;;;25.05;40.58;100357.34;105755;1286;72212;-88
2023/07/20 09:30:31;;;;;;;;;;;;;;;25.12;40.39;100355.02;105691;1288;59147;-88
2023/07/20 09:33:56;;;;;;;;;;;;;;;25.02;40.50;100358.33;105858;1286;60209;-87
2023/07/20 09:37:13;;;;;;;;;;;;;;;24.95;40.78;100359.90;105730;1285;73425;-87
2023/07/20 09:40:20;;;;;;;;;;;;;;;24.94;40.79;100362.30;105637;1288;67168;-87
2023/07/20 09:43:10;;;;;;;;;;;;;;;24.88;40.68;100359.12;105861;1285;71419;-86
2023/07/20 09:45:59;;;;;;;;;;;;;;;24.77;40.81;100354.68;105762;1286;61155;-86
2023/07/20 09:48:55;;;;;;;;;;;;;;;24.67;40.92;100354.59;105610;1286;59096;-87
2023/07/20 09:51:53;;;;;;;;;;;;;;;24.67;40.98;100355.29;105661;1286;74336;-86
2023/07/20 09:54:42;;;;;;;;;;;;;;;24.59;40.94;100349.55;105587;1286;68283;-87
2023/07/20 09:57:28;;;;;;;;;;;;;;;24.57;41.09;100349.04;105497;1288;70317;-86
2023/07/20 10:00:36;;;;;;;;;;;;;;;24.73;41.07;100346.84;105652;1288;61146;-88
2023/07/20 10:03:44;;;;;;;;;;;;;;;24.93;41.08;100343.70;105262;1286;62558;-85
2023/07/20 10:06:52;;;;;;;;;;;;;;;25.00;41.15;100344.58;105526;1286;73580;-88
2023/07/20 10:10:17;;;;;;;;;;;;;;;25.05;41.09;100340.77;105816;1290;68308;-87
2023/07/20 10:13:43;;;;;;;;;;;;;;;24.97;41.04;100349.92;105751;1286;72691;-88
2023/07/20 10:17:13;;;;;;;;;;;;;;;24.88;41.13;100350.29;105729;1286;61142;-89
2023/07/20 10:20:39;;;;;;;;;;;;;;;24.79;41.18;100347.98;105271;1286;61596;-89
2023/07/20 10:24:02;;;;;;;;;;;;;;;24.60;41.19;100341.56;105340;1286;74529;-86
2023/07/20 10:26:48;;;;;;;;;;;;;;;24.41;41.22;100347.27;105770;1285;69064;-86
2023/07/20 10:29:37;;;;;;;;;;;;;;;24.33;41.33;100350.59;105705;1286;73555;-86
2023/07/20 10:32:28;;;;;;;;;;;;;;;24.31;41.26;100348.06;105750;1287;61254;-86
2023/07/20 10:35:15;;;;;;;;;;;;;;;24.27;41.32;100340.65;105672;1289;61248;-86
2023/07/20 10:38:22;;;;;;;;;;;;;;;24.15;41.19;100344.02;105742;1285;73442;-86
2023/07/20 10:41:32;;;;;;;;;;;;;;;24.13;41.39;100344.16;105677;1286;69991;-88
2023/07/20 10:44:58;;;;;;;;;;;;;;;24.16;41.28;100338.31;105392;1289;75824;-88
2023/07/20 10:48:24;;;;;;;;;;;;;;;24.19;41.29;100331.24;105739;1286;61224;-88
2023/07/20 10:51:50;;;;;;;;;;;;;;;24.15;41.34;100332.23;105555;1286;61220;-88
2023/07/20 10:55:16;;;;;;;;;;;;;;;24.18;41.57;100325.65;105744;1285;73284;-88
2023/07/20 10:58:48;;;;;;;;;;;;;;;24.23;41.42;100317.32;105753;1288;67968;-86
2023/07/20 11:01:55;;;;;;;;;;;;;;;24.31;41.52;100311.98;105829;1286;71966;-88
2023/07/20 11:05:20;;;;;;;;;;;;;;;24.37;41.56;100306.60;105823;1286;60848;-87
2023/07/20 11:08:58;;;;;;;;;;;;;;;24.38;41.56;100308.20;105869;1286;61283;-87
2023/07/20 11:12:37;;;;;;;;;;;;;;;24.53;41.66;100300.15;105872;1286;72324;-88
2023/07/20 11:16:06;;;;;;;;;;;;;;;24.70;41.66;100296.70;105836;1285;67236;-87
2023/07/20 11:19:44;;;;;;;;;;;;;;;24.79;41.53;100299.13;105403;1291;73940;-87
2023/07/20 11:23:10;;;;;;;;;;;;;;;24.73;41.48;100294.68;105254;1291;61493;-88
2023/07/20 11:26:36;;;;;;;;;;;;;;;24.78;41.57;100301.57;105371;1291;59291;-88
2023/07/20 11:29:42;;;;;;;;;;;;;;;24.79;41.55;100298.97;105308;1291;77227;-87
2023/07/20 11:32:49;;;;;;;;;;;;;;;24.91;41.62;100291.83;105349;1291;67806;-90
2023/07/20 11:36:15;;;;;;;;;;;;;;;24.99;41.50;100292.02;105049;1291;71481;-87
2023/07/20 11:39:25;;;;;;;;;;;;;;;24.89;41.47;100300.95;104742;1294;61288;-87
2023/07/20 11:42:51;;;;;;;;;;;;;;;24.70;41.57;100307.25;105110;1291;63332;-88
2023/07/20 11:46:17;;;;;;;;;;;;;;;24.58;41.49;100310.73;105251;1291;73368;-88
2023/07/20 11:49:42;;;;;;;;;;;;;;;24.35;41.52;100312.75;105384;1291;68557;-87
2023/07/20 11:52:49;;;;;;;;;;;;;;;24.19;41.53;100307.26;105264;1291;71254;-88
2023/07/20 11:56:15;;;;;;;;;;;;;;;24.12;41.53;100306.05;105513;1286;59129;-88
2023/07/20 11:59:41;;;;;;;;;;;;;;;24.04;41.44;100312.27;105744;1288;59826;-88
2023/07/20 12:02:51;;;;;;;;;;;;;;;23.94;41.45;100312.91;105523;1285;76019;-88
2023/07/20 12:06:17;;;;;;;;;;;;;;;23.82;41.19;100315.79;105743;1286;67289;-88
2023/07/20 12:09:43;;;;;;;;;;;;;;;23.69;41.07;100313.56;105680;1286;71297;-88
2023/07/20 12:13:09;;;;;;;;;;;;;;;23.55;41.02;100323.42;105669;1285;61036;-88
2023/07/20 12:16:35;;;;;;;;;;;;;;;23.22;41.02;100339.77;105713;1285;61468;-88
2023/07/20 12:20:00;;;;;;;;;;;;;;;22.71;41.96;100375.09;105491;1289;73290;-89
2023/07/20 12:23:29;;;;;;;;;;;;;;;22.12;42.38;100388.66;105525;1290;70052;-89
2023/07/20 12:26:55;;;;;;;;;;;;;;;21.74;42.86;100387.14;105463;1290;71278;-89
2023/07/20 12:30:22;;;;;;;;;;;;;;;21.36;43.10;100371.76;105526;1291;59328;-88
2023/07/20 12:33:32;;;;;;;;;;;;;;;21.19;43.67;100360.61;105552;1290;59946;-89
2023/07/20 12:36:59;;;;;;;;;;;;;;;21.27;43.83;100364.83;105248;1290;73366;-90
2023/07/20 12:40:27;;;;;;;;;;;;;;;21.42;44.38;100363.50;105414;1292;66417;-90
2023/07/20 12:43:53;;;;;;;;;;;;;;;21.58;44.28;100366.33;105310;1291;74496;-89
2023/07/20 12:46:53;;;;;;;;;;;;;;;21.61;44.26;100366.81;105822;1284;61372;-89
2023/07/20 12:50:19;;;;;;;;;;;;;;;21.56;44.55;100367.11;105755;1287;59174;-88
2023/07/20 12:56:26;;;;;;;;;;;;;;;21.54;45.03;100366.27;105669;1286;66365;-87
2023/07/20 12:59:52;;;;;;;;;;;;;;;21.54;45.11;100365.36;105615;1286;71416;-86
2023/07/20 13:03:19;;;;;;;;;;;;;;;21.60;45.12;100363.91;105589;1292;59350;-87
2023/07/20 13:06:21;;;;;;;;;;;;;;;21.67;45.54;100361.99;105554;1287;61359;-86
2023/07/20 13:09:08;;;;;;;;;;;;;;;21.85;45.95;100362.04;105494;1286;73140;-86
2023/07/20 13:12:22;;;;;;;;;;;;;;;21.97;45.87;100361.20;105485;1286;66257;-86
2023/07/20 13:15:50;;;;;;;;;;;;;;;22.13;45.97;100361.24;105480;1286;71728;-87
2023/07/20 13:19:16;;;;;;;;;;;;;;;22.29;46.02;100364.71;106089;1286;59953;-87
2023/07/20 13:22:42;;;;;;;;;;;;;;;22.47;46.12;100360.61;105508;1286;61156;-88
2023/07/20 14:22:45;;;;;;;;;;;;;;;;;;;;;
2023/07/20 14:25:59;;;;;;;;;;;;;;;21.90;46.96;100420.65;105975;1285;59116;-88
2023/07/20 14:29:25;;;;;;;;;;;;;;;21.74;47.24;100412.93;105790;1285;61219;-88
2023/07/20 14:32:52;;;;;;;;;;;;;;;21.67;47.58;100407.61;105722;1286;74483;-88
2023/07/20 14:36:18;;;;;;;;;;;;;;;21.68;47.97;100408.63;106016;1285;68504;-88
2023/07/20 14:39:44;;;;;;;;;;;;;;;21.74;48.40;100404.50;105657;1286;71394;-88
2023/07/20 14:43:11;;;;;;;;;;;;;;;21.72;48.26;100405.55;105630;1285;61501;-89
2023/07/20 14:46:37;;;;;;;;;;;;;;;21.77;48.43;100410.80;105620;1285;59809;-88
2023/07/20 14:50:04;;;;;;;;;;;;;;;21.87;48.60;100402.23;105595;1285;74671;-88
2023/07/20 14:53:30;;;;;;;;;;;;;;;21.97;48.76;100396.64;105111;1294;67247;-88
2023/07/20 14:56:57;;;;;;;;;;;;;;;21.93;48.75;100394.29;105080;1296;71833;-88
2023/07/20 15:00:23;;;;;;;;;;;;;;;21.84;49.01;100389.84;105102;1292;59137;-88
2023/07/20 15:03:52;;;;;;;;;;;;;;;21.83;49.20;100390.61;104636;1302;59621;-88
2023/07/20 15:07:16;;;;;;;;;;;;;;;21.86;49.41;100387.73;104640;1297;75988;-89
2023/07/20 15:10:44;;;;;;;;;;;;;;;21.93;49.38;100382.73;104558;1297;70594;-88
2023/07/20 15:14:09;;;;;;;;;;;;;;;22.01;49.64;100387.61;104568;1300;72936;-89
2023/07/20 15:17:38;;;;;;;;;;;;;;;22.12;49.70;100386.02;104516;1298;61194;-89
2023/07/20 15:21:05;;;;;;;;;;;;;;;22.24;49.91;100388.90;104604;1297;58994;-89
2023/07/20 15:24:31;;;;;;;;;;;;;;;22.34;49.84;100384.73;104549;1298;77234;-89
2023/07/20 15:27:58;;;;;;;;;;;;;;;22.35;49.62;100385.70;104615;1297;70032;-89
2023/07/20 15:31:51;;;;;;;;;;;;;;;;;;;;;
2023/07/20 16:16:10;;;;;;;;;;;;;;;21.37;49.18;100383.24;105653;1284;60288;-89
2023/07/20 16:40:26;;;;;;;;;;;;;;;21.52;49.26;100373.39;105948;1284;76722;-93
2023/07/20 16:51:43;;;;;;;;;;;;;;;21.20;49.24;100374.55;105775;1288;76821;-89
2023/07/20 16:57:40;;;;;;;;;;;;;;;21.24;49.26;100371.50;105783;1284;61133;-90
2023/07/20 17:19:13;;;;;;;;;;;;;;;21.36;48.82;100363.14;105754;1291;71828;-91
2023/07/20 17:35:49;;;;;;;;;;;;;;;21.21;48.61;100370.84;105840;1285;60054;-91
2023/07/20 17:39:16;;;;;;;;;;;;;;;21.14;48.63;100372.48;105858;1285;62710;-88
2023/07/20 17:42:42;;;;;;;;;;;;;;;21.08;48.59;100376.20;105908;1285;73144;-89
2023/07/20 17:46:08;;;;;;;;;;;;;;;21.02;48.45;100378.16;105904;1285;68527;-89
2023/07/20 17:49:35;;;;;;;;;;;;;;;20.96;48.40;100379.21;105902;1285;71409;-89
2023/07/20 17:53:11;;;;;;;;;;;;;;;;;;;;;
2023/07/20 17:59:28;;;;;;;;;;;;;;;20.87;48.56;100382.27;106117;1286;74613;-92
2023/07/20 18:02:55;;;;;;;;;;;;;;;20.82;48.62;100385.71;105893;1289;68483;-90
2023/07/20 18:06:24;;;;;;;;;;;;;;;20.76;48.60;100393.67;105516;1289;70301;-90
2023/07/20 18:09:50;;;;;;;;;;;;;;;20.71;48.74;100395.88;105481;1289;61335;-90
2023/07/20 18:13:17;;;;;;;;;;;;;;;20.71;48.64;100395.69;105477;1289;61244;-90
2023/07/20 18:16:43;;;;;;;;;;;;;;;20.70;48.59;100399.45;105439;1289;73938;-90
2023/07/20 18:20:10;;;;;;;;;;;;;;;20.63;48.69;100400.05;105449;1289;67248;-90
2023/07/20 18:23:36;;;;;;;;;;;;;;;20.58;48.65;100402.83;104970;1293;70738;-88
2023/07/20 18:26:42;;;;;;;;;;;;;;;20.55;48.93;100402.67;105028;1294;61412;-91
2023/07/20 18:49:39;;;;;;;;;;;;;;;;;;;;;
2023/07/20 19:40:05;;;;;;;;;;;;;;;18.98;50.65;100459.89;105651;1288;74591;-89
2023/07/20 19:43:31;;;;;;;;;;;;;;;18.86;50.79;100465.41;105074;1294;67229;-88
2023/07/20 19:47:00;;;;;;;;;;;;;;;18.75;50.77;100465.11;105143;1291;71429;-89